sensor_id;sensor_type;location;lat;lon;timestamp;P1;durP1;ratioP1;P2;durP2;ratioP2
10250;SDS011;5170;58.692;12.478;2023-03-01T00:01:22;0.30;;;0.10;;
10250;SDS011;5170;58.692;12.478;2023-03-01T00:04:10;0.50;;;0.40;;
10250;SDS011;5170;58.692;12.478;2023-03-01T00:06:58;0.63;;;0.40;;
10250;SDS011;5170;58.692;12.478;2023-03-01T00:09:46;0.83;;;0.60;;
10250;SDS011;5170;58.692;12.478;2023-03-01T00:12:35;0.70;;;0.70;;
10250;SDS011;5170;58.692;12.478;2023-03-01T00:15:23;0.60;;;0.60;;
10250;SDS011;5170;58.692;12.478;2023-03-01T00:18:10;0.67;;;0.57;;
10250;SDS011;5170;58.692;12.478;2023-03-01T00:20:58;1.43;;;0.80;;
10250;SDS011;5170;58.692;12.478;2023-03-01T00:23:45;1.57;;;0.87;;
10250;SDS011;5170;58.692;12.478;2023-03-01T00:26:34;1.03;;;0.80;;
10250;SDS011;5170;58.692;12.478;2023-03-01T00:29:23;0.90;;;0.80;;
10250;SDS011;5170;58.692;12.478;2023-03-01T00:32:10;0.50;;;0.43;;
10250;SDS011;5170;58.692;12.478;2023-03-01T00:34:58;0.57;;;0.40;;
10250;SDS011;5170;58.692;12.478;2023-03-01T00:37:46;0.90;;;0.50;;
10250;SDS011;5170;58.692;12.478;2023-03-01T00:40:34;0.90;;;0.40;;
10250;SDS011;5170;58.692;12.478;2023-03-01T00:43:22;0.90;;;0.43;;
10250;SDS011;5170;58.692;12.478;2023-03-01T00:46:11;0.93;;;0.40;;
10250;SDS011;5170;58.692;12.478;2023-03-01T00:48:59;0.70;;;0.40;;
10250;SDS011;5170;58.692;12.478;2023-03-01T00:51:47;1.03;;;0.40;;
10250;SDS011;5170;58.692;12.478;2023-03-01T00:54:35;0.50;;;0.40;;
10250;SDS011;5170;58.692;12.478;2023-03-01T00:57:23;0.87;;;0.40;;
10250;SDS011;5170;58.692;12.478;2023-03-01T01:00:11;1.13;;;0.73;;
10250;SDS011;5170;58.692;12.478;2023-03-01T01:03:00;1.23;;;0.60;;
10250;SDS011;5170;58.692;12.478;2023-03-01T01:05:47;0.70;;;0.40;;
10250;SDS011;5170;58.692;12.478;2023-03-01T01:08:35;0.37;;;0.23;;
10250;SDS011;5170;58.692;12.478;2023-03-01T01:11:24;0.50;;;0.40;;
10250;SDS011;5170;58.692;12.478;2023-03-01T01:14:12;0.80;;;0.40;;
10250;SDS011;5170;58.692;12.478;2023-03-01T01:17:00;0.80;;;0.43;;
10250;SDS011;5170;58.692;12.478;2023-03-01T01:19:49;2.10;;;0.60;;
10250;SDS011;5170;58.692;12.478;2023-03-01T01:22:36;1.63;;;0.70;;
10250;SDS011;5170;58.692;12.478;2023-03-01T01:25:24;0.77;;;0.60;;
10250;SDS011;5170;58.692;12.478;2023-03-01T01:28:12;3.23;;;0.87;;
10250;SDS011;5170;58.692;12.478;2023-03-01T01:30:59;0.47;;;0.30;;
10250;SDS011;5170;58.692;12.478;2023-03-01T01:33:47;0.40;;;0.40;;
10250;SDS011;5170;58.692;12.478;2023-03-01T01:36:36;0.70;;;0.53;;
10250;SDS011;5170;58.692;12.478;2023-03-01T01:39:23;1.87;;;0.47;;
10250;SDS011;5170;58.692;12.478;2023-03-01T01:42:12;0.50;;;0.33;;
10250;SDS011;5170;58.692;12.478;2023-03-01T01:48:20;0.50;;;0.30;;
10250;SDS011;5170;58.692;12.478;2023-03-01T01:51:11;0.50;;;0.30;;
10250;SDS011;5170;58.692;12.478;2023-03-01T01:54:01;0.40;;;0.40;;
10250;SDS011;5170;58.692;12.478;2023-03-01T01:56:52;0.50;;;0.47;;
10250;SDS011;5170;58.692;12.478;2023-03-01T01:59:40;1.07;;;0.33;;
10250;SDS011;5170;58.692;12.478;2023-03-01T02:02:30;0.47;;;0.37;;
10250;SDS011;5170;58.692;12.478;2023-03-01T02:05:22;0.73;;;0.37;;
10250;SDS011;5170;58.692;12.478;2023-03-01T02:08:12;0.80;;;0.40;;
10250;SDS011;5170;58.692;12.478;2023-03-01T02:11:02;1.07;;;0.20;;
10250;SDS011;5170;58.692;12.478;2023-03-01T02:13:50;0.50;;;0.20;;
10250;SDS011;5170;58.692;12.478;2023-03-01T02:16:37;0.60;;;0.30;;
10250;SDS011;5170;58.692;12.478;2023-03-01T02:19:29;0.73;;;0.30;;
10250;SDS011;5170;58.692;12.478;2023-03-01T02:22:20;0.97;;;0.77;;
10250;SDS011;5170;58.692;12.478;2023-03-01T02:25:12;0.80;;;0.30;;
10250;SDS011;5170;58.692;12.478;2023-03-01T02:28:07;1.50;;;0.30;;
10250;SDS011;5170;58.692;12.478;2023-03-01T02:30:57;0.40;;;0.30;;
10250;SDS011;5170;58.692;12.478;2023-03-01T02:34:02;0.40;;;0.30;;
10250;SDS011;5170;58.692;12.478;2023-03-01T02:36:52;0.90;;;0.60;;
10250;SDS011;5170;58.692;12.478;2023-03-01T02:39:42;0.40;;;0.30;;
10250;SDS011;5170;58.692;12.478;2023-03-01T02:42:31;0.50;;;0.30;;
10250;SDS011;5170;58.692;12.478;2023-03-01T02:45:20;0.60;;;0.30;;
10250;SDS011;5170;58.692;12.478;2023-03-01T02:48:09;0.40;;;0.17;;
10250;SDS011;5170;58.692;12.478;2023-03-01T02:51:02;0.53;;;0.30;;
10250;SDS011;5170;58.692;12.478;2023-03-01T02:53:53;0.40;;;0.23;;
10250;SDS011;5170;58.692;12.478;2023-03-01T02:56:44;1.37;;;0.40;;
10250;SDS011;5170;58.692;12.478;2023-03-01T02:59:34;0.30;;;0.17;;
10250;SDS011;5170;58.692;12.478;2023-03-01T03:02:25;1.90;;;0.40;;
10250;SDS011;5170;58.692;12.478;2023-03-01T03:05:24;2.10;;;0.50;;
10250;SDS011;5170;58.692;12.478;2023-03-01T03:08:12;0.70;;;0.30;;
10250;SDS011;5170;58.692;12.478;2023-03-01T03:11:01;0.43;;;0.27;;
10250;SDS011;5170;58.692;12.478;2023-03-01T03:13:49;2.33;;;0.50;;
10250;SDS011;5170;58.692;12.478;2023-03-01T03:16:39;1.97;;;0.93;;
10250;SDS011;5170;58.692;12.478;2023-03-01T03:19:26;2.70;;;0.90;;
10250;SDS011;5170;58.692;12.478;2023-03-01T03:22:15;0.80;;;0.70;;
10250;SDS011;5170;58.692;12.478;2023-03-01T03:25:03;1.57;;;0.90;;
10250;SDS011;5170;58.692;12.478;2023-03-01T03:27:52;0.47;;;0.40;;
10250;SDS011;5170;58.692;12.478;2023-03-01T03:30:42;0.93;;;0.57;;
10250;SDS011;5170;58.692;12.478;2023-03-01T03:33:30;0.57;;;0.40;;
10250;SDS011;5170;58.692;12.478;2023-03-01T03:36:18;0.87;;;0.60;;
10250;SDS011;5170;58.692;12.478;2023-03-01T03:39:08;0.60;;;0.50;;
10250;SDS011;5170;58.692;12.478;2023-03-01T03:41:55;1.17;;;0.67;;
10250;SDS011;5170;58.692;12.478;2023-03-01T03:44:43;0.97;;;0.60;;
10250;SDS011;5170;58.692;12.478;2023-03-01T03:47:30;0.50;;;0.40;;
10250;SDS011;5170;58.692;12.478;2023-03-01T03:50:18;1.20;;;0.50;;
10250;SDS011;5170;58.692;12.478;2023-03-01T03:53:07;0.50;;;0.40;;
10250;SDS011;5170;58.692;12.478;2023-03-01T03:55:56;0.50;;;0.50;;
10250;SDS011;5170;58.692;12.478;2023-03-01T03:58:43;0.60;;;0.47;;
10250;SDS011;5170;58.692;12.478;2023-03-01T04:01:31;0.83;;;0.60;;
10250;SDS011;5170;58.692;12.478;2023-03-01T04:04:19;0.97;;;0.43;;
10250;SDS011;5170;58.692;12.478;2023-03-01T04:07:06;0.90;;;0.50;;
10250;SDS011;5170;58.692;12.478;2023-03-01T04:09:54;1.43;;;0.60;;
10250;SDS011;5170;58.692;12.478;2023-03-01T04:12:43;0.70;;;0.37;;
10250;SDS011;5170;58.692;12.478;2023-03-01T04:15:31;1.97;;;0.60;;
10250;SDS011;5170;58.692;12.478;2023-03-01T04:18:19;0.73;;;0.43;;
10250;SDS011;5170;58.692;12.478;2023-03-01T04:21:07;3.53;;;0.50;;
10250;SDS011;5170;58.692;12.478;2023-03-01T04:23:55;2.40;;;1.10;;
10250;SDS011;5170;58.692;12.478;2023-03-01T04:26:43;7.00;;;2.33;;
10250;SDS011;5170;58.692;12.478;2023-03-01T04:29:32;7.77;;;3.20;;
10250;SDS011;5170;58.692;12.478;2023-03-01T04:32:20;4.73;;;1.93;;
10250;SDS011;5170;58.692;12.478;2023-03-01T04:35:08;1.97;;;1.07;;
10250;SDS011;5170;58.692;12.478;2023-03-01T04:37:55;1.07;;;0.80;;
10250;SDS011;5170;58.692;12.478;2023-03-01T04:40:43;1.00;;;0.67;;
10250;SDS011;5170;58.692;12.478;2023-03-01T04:43:31;1.00;;;0.80;;
10250;SDS011;5170;58.692;12.478;2023-03-01T04:46:21;3.17;;;0.97;;
10250;SDS011;5170;58.692;12.478;2023-03-01T04:49:08;1.07;;;0.70;;
10250;SDS011;5170;58.692;12.478;2023-03-01T04:51:56;2.47;;;0.80;;
10250;SDS011;5170;58.692;12.478;2023-03-01T04:54:47;1.53;;;0.90;;
10250;SDS011;5170;58.692;12.478;2023-03-01T04:57:35;1.53;;;1.20;;
10250;SDS011;5170;58.692;12.478;2023-03-01T05:00:22;2.90;;;1.30;;
10250;SDS011;5170;58.692;12.478;2023-03-01T05:03:11;0.80;;;0.33;;
10250;SDS011;5170;58.692;12.478;2023-03-01T05:06:03;1.10;;;0.43;;
10250;SDS011;5170;58.692;12.478;2023-03-01T05:08:51;0.40;;;0.40;;
10250;SDS011;5170;58.692;12.478;2023-03-01T05:11:39;0.50;;;0.40;;
10250;SDS011;5170;58.692;12.478;2023-03-01T05:14:26;0.90;;;0.47;;
10250;SDS011;5170;58.692;12.478;2023-03-01T05:17:14;0.70;;;0.50;;
10250;SDS011;5170;58.692;12.478;2023-03-01T05:20:04;1.10;;;0.70;;
10250;SDS011;5170;58.692;12.478;2023-03-01T05:22:55;3.47;;;1.30;;
10250;SDS011;5170;58.692;12.478;2023-03-01T05:25:43;1.10;;;0.70;;
10250;SDS011;5170;58.692;12.478;2023-03-01T05:28:31;0.93;;;0.60;;
10250;SDS011;5170;58.692;12.478;2023-03-01T05:31:19;0.90;;;0.90;;
10250;SDS011;5170;58.692;12.478;2023-03-01T05:34:06;1.67;;;1.20;;
10250;SDS011;5170;58.692;12.478;2023-03-01T05:36:56;1.07;;;0.53;;
10250;SDS011;5170;58.692;12.478;2023-03-01T05:39:43;0.60;;;0.50;;
10250;SDS011;5170;58.692;12.478;2023-03-01T05:42:31;0.50;;;0.50;;
10250;SDS011;5170;58.692;12.478;2023-03-01T05:45:19;2.47;;;0.77;;
10250;SDS011;5170;58.692;12.478;2023-03-01T05:48:06;1.07;;;0.50;;
10250;SDS011;5170;58.692;12.478;2023-03-01T05:50:54;0.70;;;0.50;;
10250;SDS011;5170;58.692;12.478;2023-03-01T05:53:43;1.07;;;0.73;;
10250;SDS011;5170;58.692;12.478;2023-03-01T05:56:32;1.77;;;0.70;;
10250;SDS011;5170;58.692;12.478;2023-03-01T05:59:20;0.90;;;0.50;;
10250;SDS011;5170;58.692;12.478;2023-03-01T06:02:07;0.77;;;0.57;;
10250;SDS011;5170;58.692;12.478;2023-03-01T06:04:55;1.13;;;0.40;;
10250;SDS011;5170;58.692;12.478;2023-03-01T06:07:43;0.70;;;0.60;;
10250;SDS011;5170;58.692;12.478;2023-03-01T06:10:32;1.30;;;0.77;;
10250;SDS011;5170;58.692;12.478;2023-03-01T06:13:20;3.83;;;1.00;;
10250;SDS011;5170;58.692;12.478;2023-03-01T06:16:09;0.50;;;0.40;;
10250;SDS011;5170;58.692;12.478;2023-03-01T06:18:56;0.43;;;0.33;;
10250;SDS011;5170;58.692;12.478;2023-03-01T06:21:44;1.50;;;0.60;;
10250;SDS011;5170;58.692;12.478;2023-03-01T06:24:32;1.07;;;0.60;;
10250;SDS011;5170;58.692;12.478;2023-03-01T06:27:21;2.50;;;0.40;;
10250;SDS011;5170;58.692;12.478;2023-03-01T06:30:09;1.30;;;0.50;;
10250;SDS011;5170;58.692;12.478;2023-03-01T06:32:57;2.43;;;0.70;;
10250;SDS011;5170;58.692;12.478;2023-03-01T06:35:46;1.93;;;0.77;;
10250;SDS011;5170;58.692;12.478;2023-03-01T06:38:34;1.10;;;0.60;;
10250;SDS011;5170;58.692;12.478;2023-03-01T06:41:21;1.50;;;0.80;;
10250;SDS011;5170;58.692;12.478;2023-03-01T06:44:10;0.93;;;0.90;;
10250;SDS011;5170;58.692;12.478;2023-03-01T06:46:59;2.53;;;1.07;;
10250;SDS011;5170;58.692;12.478;2023-03-01T06:49:46;1.90;;;1.27;;
10250;SDS011;5170;58.692;12.478;2023-03-01T06:52:34;1.93;;;1.20;;
10250;SDS011;5170;58.692;12.478;2023-03-01T06:55:22;1.37;;;1.03;;
10250;SDS011;5170;58.692;12.478;2023-03-01T06:58:09;2.93;;;1.37;;
10250;SDS011;5170;58.692;12.478;2023-03-01T07:00:58;3.80;;;1.60;;
10250;SDS011;5170;58.692;12.478;2023-03-01T07:03:46;6.40;;;2.07;;
10250;SDS011;5170;58.692;12.478;2023-03-01T07:06:34;2.73;;;2.30;;
10250;SDS011;5170;58.692;12.478;2023-03-01T07:09:21;15.67;;;6.57;;
10250;SDS011;5170;58.692;12.478;2023-03-01T07:12:09;14.07;;;6.03;;
10250;SDS011;5170;58.692;12.478;2023-03-01T07:14:57;16.20;;;6.83;;
10250;SDS011;5170;58.692;12.478;2023-03-01T07:17:46;12.07;;;5.70;;
10250;SDS011;5170;58.692;12.478;2023-03-01T07:20:36;5.57;;;3.30;;
10250;SDS011;5170;58.692;12.478;2023-03-01T07:23:23;5.00;;;3.13;;
10250;SDS011;5170;58.692;12.478;2023-03-01T07:26:11;9.67;;;3.87;;
10250;SDS011;5170;58.692;12.478;2023-03-01T07:28:59;6.13;;;3.10;;
10250;SDS011;5170;58.692;12.478;2023-03-01T07:31:46;3.10;;;1.40;;
10250;SDS011;5170;58.692;12.478;2023-03-01T07:34:35;2.10;;;1.43;;
10250;SDS011;5170;58.692;12.478;2023-03-01T07:37:23;3.40;;;1.20;;
10250;SDS011;5170;58.692;12.478;2023-03-01T07:40:11;2.07;;;1.30;;
10250;SDS011;5170;58.692;12.478;2023-03-01T07:42:59;3.03;;;1.60;;
10250;SDS011;5170;58.692;12.478;2023-03-01T07:45:46;0.87;;;0.80;;
10250;SDS011;5170;58.692;12.478;2023-03-01T07:48:34;1.47;;;0.97;;
10250;SDS011;5170;58.692;12.478;2023-03-01T07:51:23;1.37;;;0.93;;
10250;SDS011;5170;58.692;12.478;2023-03-01T07:54:11;0.50;;;0.43;;
10250;SDS011;5170;58.692;12.478;2023-03-01T07:56:59;0.87;;;0.73;;
10250;SDS011;5170;58.692;12.478;2023-03-01T07:59:46;3.87;;;0.93;;
10250;SDS011;5170;58.692;12.478;2023-03-01T08:02:34;0.80;;;0.80;;
10250;SDS011;5170;58.692;12.478;2023-03-01T08:05:21;1.53;;;0.97;;
10250;SDS011;5170;58.692;12.478;2023-03-01T08:08:10;1.63;;;1.13;;
10250;SDS011;5170;58.692;12.478;2023-03-01T08:10:58;0.77;;;0.60;;
10250;SDS011;5170;58.692;12.478;2023-03-01T08:13:47;2.77;;;0.90;;
10250;SDS011;5170;58.692;12.478;2023-03-01T08:16:35;2.13;;;0.93;;
10250;SDS011;5170;58.692;12.478;2023-03-01T08:19:22;0.80;;;0.70;;
10250;SDS011;5170;58.692;12.478;2023-03-01T08:22:10;1.30;;;0.70;;
10250;SDS011;5170;58.692;12.478;2023-03-01T08:24:59;1.07;;;0.60;;
10250;SDS011;5170;58.692;12.478;2023-03-01T08:27:47;1.13;;;0.60;;
10250;SDS011;5170;58.692;12.478;2023-03-01T08:30:34;9.57;;;0.90;;
10250;SDS011;5170;58.692;12.478;2023-03-01T08:33:22;0.67;;;0.47;;
10250;SDS011;5170;58.692;12.478;2023-03-01T08:36:10;2.43;;;0.50;;
10250;SDS011;5170;58.692;12.478;2023-03-01T08:38:57;0.40;;;0.30;;
10250;SDS011;5170;58.692;12.478;2023-03-01T08:41:47;0.50;;;0.20;;
10250;SDS011;5170;58.692;12.478;2023-03-01T08:44:34;1.40;;;0.30;;
10250;SDS011;5170;58.692;12.478;2023-03-01T08:47:22;0.60;;;0.30;;
10250;SDS011;5170;58.692;12.478;2023-03-01T08:50:09;0.50;;;0.30;;
10250;SDS011;5170;58.692;12.478;2023-03-01T08:52:57;0.77;;;0.63;;
10250;SDS011;5170;58.692;12.478;2023-03-01T08:55:45;0.70;;;0.40;;
10250;SDS011;5170;58.692;12.478;2023-03-01T08:58:34;0.83;;;0.70;;
10250;SDS011;5170;58.692;12.478;2023-03-01T09:01:22;0.60;;;0.20;;
10250;SDS011;5170;58.692;12.478;2023-03-01T09:04:09;1.57;;;1.00;;
10250;SDS011;5170;58.692;12.478;2023-03-01T09:06:57;0.70;;;0.63;;
10250;SDS011;5170;58.692;12.478;2023-03-01T09:09:45;2.00;;;0.60;;
10250;SDS011;5170;58.692;12.478;2023-03-01T09:12:32;2.50;;;1.03;;
10250;SDS011;5170;58.692;12.478;2023-03-01T09:15:21;1.23;;;0.67;;
10250;SDS011;5170;58.692;12.478;2023-03-01T09:18:09;0.30;;;0.30;;
10250;SDS011;5170;58.692;12.478;2023-03-01T09:21:00;0.50;;;0.33;;
10250;SDS011;5170;58.692;12.478;2023-03-01T09:23:52;0.50;;;0.23;;
10250;SDS011;5170;58.692;12.478;2023-03-01T09:26:40;0.47;;;0.30;;
10250;SDS011;5170;58.692;12.478;2023-03-01T09:29:28;0.60;;;0.47;;
10250;SDS011;5170;58.692;12.478;2023-03-01T09:32:17;0.50;;;0.30;;
10250;SDS011;5170;58.692;12.478;2023-03-01T09:35:05;0.30;;;0.20;;
10250;SDS011;5170;58.692;12.478;2023-03-01T09:37:53;0.93;;;0.40;;
10250;SDS011;5170;58.692;12.478;2023-03-01T09:40:44;0.40;;;0.20;;
10250;SDS011;5170;58.692;12.478;2023-03-01T09:43:35;1.23;;;0.87;;
10250;SDS011;5170;58.692;12.478;2023-03-01T09:46:26;0.50;;;0.50;;
10250;SDS011;5170;58.692;12.478;2023-03-01T09:49:17;0.90;;;0.67;;
10250;SDS011;5170;58.692;12.478;2023-03-01T09:52:09;1.13;;;0.80;;
10250;SDS011;5170;58.692;12.478;2023-03-01T09:54:59;0.83;;;0.30;;
10250;SDS011;5170;58.692;12.478;2023-03-01T09:57:47;2.00;;;0.53;;
10250;SDS011;5170;58.692;12.478;2023-03-01T10:00:37;2.20;;;0.40;;
10250;SDS011;5170;58.692;12.478;2023-03-01T10:03:26;1.13;;;0.50;;
10250;SDS011;5170;58.692;12.478;2023-03-01T10:06:18;0.40;;;0.23;;
10250;SDS011;5170;58.692;12.478;2023-03-01T10:09:07;0.30;;;0.20;;
10250;SDS011;5170;58.692;12.478;2023-03-01T10:11:57;0.63;;;0.20;;
10250;SDS011;5170;58.692;12.478;2023-03-01T10:14:48;1.80;;;0.20;;
10250;SDS011;5170;58.692;12.478;2023-03-01T10:17:39;0.40;;;0.20;;
10250;SDS011;5170;58.692;12.478;2023-03-01T10:20:30;0.50;;;0.30;;
10250;SDS011;5170;58.692;12.478;2023-03-01T10:23:22;0.80;;;0.30;;
10250;SDS011;5170;58.692;12.478;2023-03-01T10:26:13;0.30;;;0.10;;
10250;SDS011;5170;58.692;12.478;2023-03-01T10:29:04;0.30;;;0.20;;
10250;SDS011;5170;58.692;12.478;2023-03-01T10:31:53;4.37;;;0.40;;
10250;SDS011;5170;58.692;12.478;2023-03-01T10:34:41;0.43;;;0.10;;
10250;SDS011;5170;58.692;12.478;2023-03-01T10:37:29;0.30;;;0.20;;
10250;SDS011;5170;58.692;12.478;2023-03-01T10:40:18;0.40;;;0.23;;
10250;SDS011;5170;58.692;12.478;2023-03-01T10:43:05;0.40;;;0.40;;
10250;SDS011;5170;58.692;12.478;2023-03-01T10:45:53;0.60;;;0.27;;
10250;SDS011;5170;58.692;12.478;2023-03-01T10:48:41;0.40;;;0.10;;
10250;SDS011;5170;58.692;12.478;2023-03-01T10:51:28;0.60;;;0.30;;
10250;SDS011;5170;58.692;12.478;2023-03-01T10:54:17;0.30;;;0.10;;
10250;SDS011;5170;58.692;12.478;2023-03-01T10:57:09;0.30;;;0.20;;
10250;SDS011;5170;58.692;12.478;2023-03-01T11:00:22;0.47;;;0.30;;
10250;SDS011;5170;58.692;12.478;2023-03-01T11:03:11;0.30;;;0.20;;
10250;SDS011;5170;58.692;12.478;2023-03-01T11:06:03;0.30;;;0.13;;
10250;SDS011;5170;58.692;12.478;2023-03-01T11:08:51;0.33;;;0.07;;
10250;SDS011;5170;58.692;12.478;2023-03-01T11:11:39;0.47;;;0.10;;
10250;SDS011;5170;58.692;12.478;2023-03-01T11:14:29;0.30;;;0.10;;
10250;SDS011;5170;58.692;12.478;2023-03-01T11:17:21;0.90;;;0.10;;
10250;SDS011;5170;58.692;12.478;2023-03-01T11:20:14;0.33;;;0.20;;
10250;SDS011;5170;58.692;12.478;2023-03-01T11:23:04;0.83;;;0.20;;
10250;SDS011;5170;58.692;12.478;2023-03-01T11:25:54;1.17;;;0.40;;
10250;SDS011;5170;58.692;12.478;2023-03-01T11:28:42;0.30;;;0.20;;
10250;SDS011;5170;58.692;12.478;2023-03-01T11:31:33;0.67;;;0.20;;
10250;SDS011;5170;58.692;12.478;2023-03-01T11:34:23;0.60;;;0.20;;
10250;SDS011;5170;58.692;12.478;2023-03-01T11:37:19;0.37;;;0.23;;
10250;SDS011;5170;58.692;12.478;2023-03-01T11:40:14;0.40;;;0.00;;
10250;SDS011;5170;58.692;12.478;2023-03-01T11:43:05;0.30;;;0.20;;
10250;SDS011;5170;58.692;12.478;2023-03-01T11:46:01;0.50;;;0.20;;
10250;SDS011;5170;58.692;12.478;2023-03-01T11:48:55;0.67;;;0.10;;
10250;SDS011;5170;58.692;12.478;2023-03-01T11:51:48;0.40;;;0.23;;
10250;SDS011;5170;58.692;12.478;2023-03-01T11:54:42;0.30;;;0.10;;
10250;SDS011;5170;58.692;12.478;2023-03-01T11:57:37;0.53;;;0.20;;
10250;SDS011;5170;58.692;12.478;2023-03-01T12:00:39;0.30;;;0.03;;
10250;SDS011;5170;58.692;12.478;2023-03-01T12:03:33;0.30;;;0.00;;
10250;SDS011;5170;58.692;12.478;2023-03-01T12:06:31;1.00;;;0.20;;
10250;SDS011;5170;58.692;12.478;2023-03-01T12:09:23;1.67;;;0.30;;
10250;SDS011;5170;58.692;12.478;2023-03-01T12:18:43;0.30;;;0.10;;
10250;SDS011;5170;58.692;12.478;2023-03-01T12:21:42;0.40;;;0.20;;
10250;SDS011;5170;58.692;12.478;2023-03-01T12:24:46;0.43;;;0.43;;
10250;SDS011;5170;58.692;12.478;2023-03-01T12:30:42;0.60;;;0.10;;
10250;SDS011;5170;58.692;12.478;2023-03-01T12:33:39;0.30;;;0.00;;
10250;SDS011;5170;58.692;12.478;2023-03-01T12:36:32;0.30;;;0.00;;
10250;SDS011;5170;58.692;12.478;2023-03-01T12:39:35;0.30;;;0.10;;
10250;SDS011;5170;58.692;12.478;2023-03-01T12:42:28;0.30;;;0.00;;
10250;SDS011;5170;58.692;12.478;2023-03-01T12:45:26;0.33;;;0.00;;
10250;SDS011;5170;58.692;12.478;2023-03-01T12:48:24;0.50;;;0.03;;
10250;SDS011;5170;58.692;12.478;2023-03-01T12:51:14;0.30;;;0.00;;
10250;SDS011;5170;58.692;12.478;2023-03-01T12:54:05;0.30;;;0.00;;
10250;SDS011;5170;58.692;12.478;2023-03-01T12:56:56;0.33;;;0.00;;
10250;SDS011;5170;58.692;12.478;2023-03-01T12:59:47;0.30;;;0.00;;
10250;SDS011;5170;58.692;12.478;2023-03-01T13:02:39;0.33;;;0.10;;
10250;SDS011;5170;58.692;12.478;2023-03-01T13:05:34;0.30;;;0.10;;
10250;SDS011;5170;58.692;12.478;2023-03-01T13:08:26;0.30;;;0.00;;
10250;SDS011;5170;58.692;12.478;2023-03-01T13:11:16;0.30;;;0.00;;
10250;SDS011;5170;58.692;12.478;2023-03-01T13:20:15;0.30;;;0.10;;
10250;SDS011;5170;58.692;12.478;2023-03-01T13:23:06;0.30;;;0.00;;
10250;SDS011;5170;58.692;12.478;2023-03-01T13:26:05;0.50;;;0.30;;
10250;SDS011;5170;58.692;12.478;2023-03-01T13:28:54;0.60;;;0.13;;
10250;SDS011;5170;58.692;12.478;2023-03-01T13:34:47;1.23;;;0.10;;
10250;SDS011;5170;58.692;12.478;2023-03-01T13:37:37;0.30;;;0.00;;
10250;SDS011;5170;58.692;12.478;2023-03-01T13:43:31;0.30;;;0.00;;
10250;SDS011;5170;58.692;12.478;2023-03-01T13:46:20;0.30;;;0.00;;
10250;SDS011;5170;58.692;12.478;2023-03-01T13:49:09;0.53;;;0.30;;
10250;SDS011;5170;58.692;12.478;2023-03-01T13:52:00;0.30;;;0.10;;
10250;SDS011;5170;58.692;12.478;2023-03-01T13:54:50;0.30;;;0.00;;
10250;SDS011;5170;58.692;12.478;2023-03-01T13:57:38;0.30;;;0.00;;
10250;SDS011;5170;58.692;12.478;2023-03-01T14:00:30;0.30;;;0.00;;
10250;SDS011;5170;58.692;12.478;2023-03-01T14:03:19;0.30;;;0.00;;
10250;SDS011;5170;58.692;12.478;2023-03-01T14:06:07;0.60;;;0.20;;
10250;SDS011;5170;58.692;12.478;2023-03-01T14:09:01;0.87;;;0.17;;
10250;SDS011;5170;58.692;12.478;2023-03-01T14:11:56;0.60;;;0.20;;
10250;SDS011;5170;58.692;12.478;2023-03-01T14:14:48;0.40;;;0.10;;
10250;SDS011;5170;58.692;12.478;2023-03-01T14:17:48;0.30;;;0.10;;
10250;SDS011;5170;58.692;12.478;2023-03-01T14:20:38;0.37;;;0.13;;
10250;SDS011;5170;58.692;12.478;2023-03-01T14:23:27;0.30;;;0.10;;
10250;SDS011;5170;58.692;12.478;2023-03-01T14:26:15;0.30;;;0.00;;
10250;SDS011;5170;58.692;12.478;2023-03-01T14:29:14;0.30;;;0.10;;
10250;SDS011;5170;58.692;12.478;2023-03-01T14:32:11;1.17;;;0.10;;
10250;SDS011;5170;58.692;12.478;2023-03-01T14:34:59;0.30;;;0.10;;
10250;SDS011;5170;58.692;12.478;2023-03-01T14:37:47;0.30;;;0.13;;
10250;SDS011;5170;58.692;12.478;2023-03-01T14:40:35;3.23;;;0.20;;
10250;SDS011;5170;58.692;12.478;2023-03-01T14:43:23;0.60;;;0.30;;
10250;SDS011;5170;58.692;12.478;2023-03-01T14:46:23;3.10;;;0.83;;
10250;SDS011;5170;58.692;12.478;2023-03-01T14:49:12;0.40;;;0.00;;
10250;SDS011;5170;58.692;12.478;2023-03-01T14:52:02;0.30;;;0.13;;
10250;SDS011;5170;58.692;12.478;2023-03-01T14:54:51;0.40;;;0.13;;
10250;SDS011;5170;58.692;12.478;2023-03-01T14:57:42;0.30;;;0.10;;
10250;SDS011;5170;58.692;12.478;2023-03-01T15:00:30;0.30;;;0.00;;
10250;SDS011;5170;58.692;12.478;2023-03-01T15:03:23;5.10;;;0.67;;
10250;SDS011;5170;58.692;12.478;2023-03-01T15:06:12;0.67;;;0.27;;
10250;SDS011;5170;58.692;12.478;2023-03-01T15:09:02;0.30;;;0.07;;
10250;SDS011;5170;58.692;12.478;2023-03-01T15:11:50;0.30;;;0.00;;
10250;SDS011;5170;58.692;12.478;2023-03-01T15:14:39;0.40;;;0.13;;
10250;SDS011;5170;58.692;12.478;2023-03-01T15:17:28;0.70;;;0.10;;
10250;SDS011;5170;58.692;12.478;2023-03-01T15:20:19;0.30;;;0.00;;
10250;SDS011;5170;58.692;12.478;2023-03-01T15:23:16;0.30;;;0.00;;
10250;SDS011;5170;58.692;12.478;2023-03-01T15:26:05;1.27;;;0.10;;
10250;SDS011;5170;58.692;12.478;2023-03-01T15:28:53;0.97;;;0.20;;
10250;SDS011;5170;58.692;12.478;2023-03-01T15:31:50;0.47;;;0.20;;
10250;SDS011;5170;58.692;12.478;2023-03-01T15:34:41;6.53;;;0.83;;
10250;SDS011;5170;58.692;12.478;2023-03-01T15:37:40;0.40;;;0.10;;
10250;SDS011;5170;58.692;12.478;2023-03-01T15:40:33;0.50;;;0.20;;
10250;SDS011;5170;58.692;12.478;2023-03-01T15:43:43;0.30;;;0.00;;
10250;SDS011;5170;58.692;12.478;2023-03-01T15:46:31;0.30;;;0.00;;
10250;SDS011;5170;58.692;12.478;2023-03-01T15:49:27;1.27;;;0.30;;
10250;SDS011;5170;58.692;12.478;2023-03-01T15:52:19;0.40;;;0.10;;
10250;SDS011;5170;58.692;12.478;2023-03-01T15:55:16;0.53;;;0.20;;
10250;SDS011;5170;58.692;12.478;2023-03-01T15:58:05;0.77;;;0.23;;
10250;SDS011;5170;58.692;12.478;2023-03-01T16:00:53;0.30;;;0.10;;
10250;SDS011;5170;58.692;12.478;2023-03-01T16:03:42;2.00;;;0.53;;
10250;SDS011;5170;58.692;12.478;2023-03-01T16:06:30;0.40;;;0.20;;
10250;SDS011;5170;58.692;12.478;2023-03-01T16:09:17;0.80;;;0.37;;
10250;SDS011;5170;58.692;12.478;2023-03-01T16:12:08;1.20;;;0.50;;
10250;SDS011;5170;58.692;12.478;2023-03-01T16:14:58;3.70;;;0.20;;
10250;SDS011;5170;58.692;12.478;2023-03-01T16:17:46;1.00;;;0.60;;
10250;SDS011;5170;58.692;12.478;2023-03-01T16:20:34;2.33;;;1.40;;
10250;SDS011;5170;58.692;12.478;2023-03-01T16:23:21;1.43;;;0.90;;
10250;SDS011;5170;58.692;12.478;2023-03-01T16:26:10;1.10;;;0.50;;
10250;SDS011;5170;58.692;12.478;2023-03-01T16:28:59;0.43;;;0.30;;
10250;SDS011;5170;58.692;12.478;2023-03-01T16:31:47;2.23;;;1.13;;
10250;SDS011;5170;58.692;12.478;2023-03-01T16:34:35;5.83;;;2.03;;
10250;SDS011;5170;58.692;12.478;2023-03-01T16:37:22;4.67;;;1.87;;
10250;SDS011;5170;58.692;12.478;2023-03-01T16:40:16;2.33;;;1.10;;
10250;SDS011;5170;58.692;12.478;2023-03-01T16:43:04;3.20;;;1.10;;
10250;SDS011;5170;58.692;12.478;2023-03-01T16:45:54;18.80;;;5.87;;
10250;SDS011;5170;58.692;12.478;2023-03-01T16:48:42;34.70;;;8.93;;
10250;SDS011;5170;58.692;12.478;2023-03-01T16:51:30;30.80;;;8.90;;
10250;SDS011;5170;58.692;12.478;2023-03-01T16:54:20;13.80;;;4.43;;
10250;SDS011;5170;58.692;12.478;2023-03-01T16:57:08;8.10;;;2.93;;
10250;SDS011;5170;58.692;12.478;2023-03-01T16:59:55;4.00;;;2.20;;
10250;SDS011;5170;58.692;12.478;2023-03-01T17:02:44;4.43;;;2.27;;
10250;SDS011;5170;58.692;12.478;2023-03-01T17:05:32;4.73;;;2.60;;
10250;SDS011;5170;58.692;12.478;2023-03-01T17:08:19;4.63;;;2.53;;
10250;SDS011;5170;58.692;12.478;2023-03-01T17:11:08;3.07;;;1.60;;
10250;SDS011;5170;58.692;12.478;2023-03-01T17:13:56;5.00;;;3.40;;
10250;SDS011;5170;58.692;12.478;2023-03-01T17:16:43;3.90;;;3.07;;
10250;SDS011;5170;58.692;12.478;2023-03-01T17:19:32;5.80;;;3.37;;
10250;SDS011;5170;58.692;12.478;2023-03-01T17:22:20;3.93;;;3.00;;
10250;SDS011;5170;58.692;12.478;2023-03-01T17:25:08;7.20;;;4.00;;
10250;SDS011;5170;58.692;12.478;2023-03-01T17:27:56;36.10;;;4.83;;